KOXC/OXC METAR and TAF weather

Enter ICAO airport designator
Station Type Date Time Source
KOXC METAR 2018/12/13 05:51 UTC NOAA

KOXC 130551Z AUTO 07009G16KT 10SM CLR M04/M12 A3028 RMK AO2 SLP276 T10391117 11006 21039 51012 FZRANO


Station Type Date Time Source
KOXC Decoded METAR 2018/12/13 05:51 UTC NOAA

Oxford, Waterbury-Oxford Airport, CT, United States (KOXC) 41-29N 073-08W
Dec 13, 2018 - 12:51 AM EST / 2018.12.13 0551 UTC
Wind: from the ENE (070 degrees) at 10 MPH (9 KT) gusting to 18 MPH (16 KT):0
Visibility: 10 mile(s):0
Sky conditions: clear
Temperature: 25.0 F (-3.9 C)
Windchill: 15 F (-9 C):1
Dew Point: 10.9 F (-11.7 C)
Relative Humidity: 54%
Pressure (altimeter): 30.28 in. Hg (1025 hPa)
Pressure tendency: 0.04 inches (1.2 hPa) higher than three hours ago
ob: KOXC 130551Z AUTO 07009G16KT 10SM CLR M04/M12 A3028 RMK AO2 SLP276 T10391117 11006 21039 51012 FZRANO
cycle: 6

Station Type Date Time Source
KOXC TAF UTC NOAA

Error!


Example: see airport list